Time;durP1;ratioP1;P1;durP2;ratioP2;P2;SDS_P1;SDS_P2;PMS_P1;PMS_P2;Temp;Humidity;BMP_temperature;BMP_pressure;BME280_temperature;BME280_humidity;BME280_pressure;Samples;Min_cycle;Max_cycle;Signal;HPM_P1;HPM_P2
2021/12/06 00:00:50;;;;;;;37.28;15.40;;;;;;;2.51;99.80;99224.44;4486378;31;20126;-69
2021/12/06 00:03:26;;;;;;;40.67;16.98;;;;;;;2.66;99.25;99231.37;4486906;31;20136;-69
2021/12/06 00:05:54;;;;;;;41.22;16.45;;;;;;;2.68;99.17;99241.78;4486723;31;20100;-69
2021/12/06 00:08:22;;;;;;;37.55;17.02;;;;;;;2.84;98.07;99254.81;4486728;31;20174;-69
2021/12/06 00:10:50;;;;;;;35.20;14.85;;;;;;;2.85;98.09;99253.94;4486527;31;20118;-69
2021/12/06 00:13:23;;;;;;;40.80;17.45;;;;;;;2.70;98.83;99256.53;4486463;31;20080;-69
2021/12/06 00:15:52;;;;;;;35.08;15.73;;;;;;;2.80;98.61;99252.22;4486638;31;20088;-69
2021/12/06 00:18:19;;;;;;;34.85;15.77;;;;;;;2.66;99.54;99257.41;4486527;31;20521;-69
2021/12/06 00:20:46;;;;;;;37.35;16.83;;;;;;;2.72;99.29;99262.63;4486517;31;20372;-69
2021/12/06 00:23:14;;;;;;;37.38;15.45;;;;;;;2.69;99.33;99256.53;4486408;31;20420;-69
2021/12/06 00:25:41;;;;;;;39.22;16.80;;;;;;;2.72;99.29;99243.50;4486565;31;20160;-69
2021/12/06 00:28:08;;;;;;;35.78;16.17;;;;;;;2.70;99.44;99238.31;4486440;31;20153;-69
2021/12/06 00:30:36;;;;;;;35.60;16.05;;;;;;;2.62;100.00;99238.31;4486278;31;20542;-69
2021/12/06 00:33:03;;;;;;;35.38;16.27;;;;;;;2.71;99.87;99245.25;4486211;31;20096;-69
2021/12/06 00:35:30;;;;;;;28.92;14.40;;;;;;;2.73;99.68;99238.34;4486394;31;20160;-69
2021/12/06 00:37:58;;;;;;;31.50;15.88;;;;;;;2.73;99.21;99243.53;4486357;31;20559;-69
2021/12/06 00:40:30;;;;;;;35.58;13.68;;;;;;;2.67;99.94;99245.25;4485523;31;20091;-69
2021/12/06 00:42:57;;;;;;;32.25;13.80;;;;;;;2.68;100.00;99240.03;4486102;31;20453;-69
2021/12/06 00:45:25;;;;;;;33.05;14.07;;;;;;;2.75;100.00;99246.13;4486387;31;20516;-69
2021/12/06 00:47:53;;;;;;;33.65;15.75;;;;;;;2.78;99.39;99251.34;4486089;31;20126;-69
2021/12/06 00:50:22;;;;;;;37.10;15.68;;;;;;;2.74;99.67;99263.47;4486063;31;20133;-69
2021/12/06 00:52:51;;;;;;;32.30;14.40;;;;;;;2.74;99.55;99271.28;4486426;31;20083;-69
2021/12/06 00:55:20;;;;;;;25.95;14.13;;;;;;;2.70;100.00;99264.34;4486102;31;20440;-69
2021/12/06 00:57:49;;;;;;;32.05;14.13;;;;;;;2.76;99.82;99258.28;4486058;31;20123;-69
2021/12/06 01:00:23;;;;;;;29.55;14.75;;;;;;;2.82;99.53;99261.72;4486021;31;20486;-69
2021/12/06 01:02:50;;;;;;;29.95;14.13;;;;;;;2.90;99.24;99272.19;4485985;31;20486;-69
2021/12/06 01:05:23;;;;;;;29.52;14.80;;;;;;;2.91;98.75;99273.91;4486190;31;20175;-69
2021/12/06 01:07:53;;;;;;;26.75;13.95;;;;;;;2.88;98.97;99266.97;4485888;31;20096;-69
2021/12/06 01:10:24;;;;;;;28.52;13.93;;;;;;;2.81;99.37;99248.75;4486089;31;20535;-69
2021/12/06 01:12:56;;;;;;;28.75;14.05;;;;;;;2.86;99.52;99240.09;4486223;31;20424;-69
2021/12/06 01:15:25;;;;;;;28.33;13.68;;;;;;;2.80;99.44;99232.28;4485964;31;20149;-69
2021/12/06 01:17:55;;;;;;;28.65;12.82;;;;;;;2.96;99.01;99234.88;4485901;31;20102;-69
2021/12/06 01:20:27;;;;;;;30.40;14.00;;;;;;;2.88;98.68;99230.53;4486083;31;20096;-69
2021/12/06 01:23:06;;;;;;;29.37;13.05;;;;;;;2.85;98.54;99238.34;4486043;31;20184;-69
2021/12/06 01:29:01;;;;;;;26.20;11.77;;;;;;;3.02;97.19;99253.09;4458997;31;20156;-69
2021/12/06 01:31:51;;;;;;;25.02;12.43;;;;;;;3.15;96.08;99244.44;4485960;31;20579;-69
2021/12/06 01:39:46;;;;;;;22.30;11.80;;;;;;;2.94;97.92;99241.81;4486052;31;20497;-69
2021/12/06 01:42:14;;;;;;;23.23;12.23;;;;;;;2.99;97.45;99240.94;4485971;31;20138;-69
2021/12/06 01:44:48;;;;;;;22.23;11.43;;;;;;;2.92;98.64;99239.22;4485991;31;20160;-69
2021/12/06 01:47:19;;;;;;;23.75;12.13;;;;;;;3.05;97.24;99240.09;4485976;31;20108;-69
2021/12/06 01:49:52;;;;;;;25.42;11.65;;;;;;;2.95;97.96;99246.16;4485739;31;20515;-69
2021/12/06 01:52:32;;;;;;;23.48;10.88;;;;;;;2.96;97.43;99243.53;4485796;31;20481;-69
2021/12/06 01:55:00;;;;;;;23.73;11.77;;;;;;;3.07;97.33;99243.53;4485847;31;20102;-69
2021/12/06 01:57:30;;;;;;;23.38;10.27;;;;;;;3.14;96.64;99254.81;4485935;31;20091;-69
2021/12/06 02:00:00;;;;;;;20.83;10.95;;;;;;;3.04;96.99;99257.44;4485586;31;20152;-69
2021/12/06 02:02:29;;;;;;;21.30;10.82;;;;;;;3.03;96.77;99258.28;4485666;31;20534;-69
2021/12/06 02:04:58;;;;;;;19.35;11.27;;;;;;;2.99;97.35;99258.28;4485745;31;20392;-69
2021/12/06 02:07:27;;;;;;;20.10;10.68;;;;;;;3.00;97.66;99255.69;4485850;31;20083;-69
2021/12/06 02:09:56;;;;;;;23.38;11.38;;;;;;;3.08;97.34;99243.56;4485456;31;20096;-69
2021/12/06 02:12:30;;;;;;;20.23;10.13;;;;;;;3.13;97.21;99243.56;4485651;31;20130;-69
2021/12/06 02:15:06;;;;;;;21.02;10.52;;;;;;;3.12;96.84;99241.81;4485565;31;20068;-69
2021/12/06 02:17:40;;;;;;;22.37;10.50;;;;;;;3.21;96.38;99235.72;4485761;31;20136;-69
2021/12/06 02:20:22;;;;;;;22.67;10.75;;;;;;;3.17;95.93;99224.47;4485587;31;20467;-69
2021/12/06 02:22:50;;;;;;;19.37;9.60;;;;;;;3.12;95.42;99227.06;4485482;31;20099;-69
2021/12/06 02:25:19;;;;;;;19.50;10.50;;;;;;;2.96;95.68;99232.28;4485494;31;20085;-69
2021/12/06 02:27:50;;;;;;;24.65;10.90;;;;;;;2.89;95.92;99239.19;4485545;31;20108;-69
2021/12/06 02:30:20;;;;;;;19.25;9.45;;;;;;;2.81;95.89;99230.53;4470997;31;20483;-69
2021/12/06 02:32:50;;;;;;;18.23;9.73;;;;;;;2.43;97.98;99238.25;4485497;31;20190;-69
2021/12/06 02:35:21;;;;;;;20.73;10.40;;;;;;;2.28;97.91;99236.50;4485603;31;20076;-69
2021/12/06 02:37:50;;;;;;;21.40;9.98;;;;;;;2.19;98.20;99239.94;4485372;31;20438;-69
2021/12/06 02:40:23;;;;;;;18.65;10.07;;;;;;;2.24;98.44;99242.56;4485300;31;20443;-69
2021/12/06 02:42:51;;;;;;;19.17;9.70;;;;;;;2.08;99.65;99241.63;4485109;31;20099;-69
2021/12/06 02:45:24;;;;;;;16.62;10.02;;;;;;;2.23;99.00;99241.69;4485057;31;20231;-69
2021/12/06 02:47:53;;;;;;;17.27;9.07;;;;;;;2.24;98.99;99243.41;4485262;31;20448;-69
2021/12/06 02:50:26;;;;;;;20.70;10.48;;;;;;;2.33;98.38;99246.06;4484972;31;20092;-69
2021/12/06 02:52:55;;;;;;;17.52;8.98;;;;;;;2.38;98.08;99246.94;4485124;31;20533;-69
2021/12/06 02:55:33;;;;;;;16.08;8.65;;;;;;;2.32;98.34;99249.50;4485178;31;20114;-69
2021/12/06 02:58:17;;;;;;;17.05;8.35;;;;;;;2.22;98.42;99254.66;4484933;31;20153;-69
2021/12/06 03:00:53;;;;;;;14.48;7.82;;;;;;;2.09;99.37;99254.63;4484809;31;20134;-69
2021/12/06 03:03:22;;;;;;;16.00;8.02;;;;;;;2.08;99.55;99257.19;4485329;31;20483;-69
2021/12/06 03:05:51;;;;;;;15.65;8.63;;;;;;;2.07;99.67;99260.69;4486968;31;20162;-69
2021/12/06 03:08:45;;;;;;;15.85;8.15;;;;;;;2.05;99.55;99263.28;4486995;31;20097;-69
2021/12/06 03:11:21;;;;;;;11.57;7.87;;;;;;;2.00;99.92;99261.50;4487037;31;20077;-69
2021/12/06 03:13:49;;;;;;;15.23;7.95;;;;;;;1.94;100.00;99251.09;4487096;31;20477;-69
2021/12/06 03:16:17;;;;;;;14.35;7.97;;;;;;;1.86;100.00;99251.91;4486927;31;20144;-69
2021/12/06 03:18:49;;;;;;;14.52;8.40;;;;;;;1.79;100.00;99250.16;4486984;31;20126;-69
2021/12/06 03:21:17;;;;;;;15.27;7.43;;;;;;;1.80;100.00;99249.31;4486745;31;20092;-69
2021/12/06 03:23:45;;;;;;;16.08;8.02;;;;;;;1.86;99.80;99259.72;4486720;31;20126;-69
2021/12/06 03:26:13;;;;;;;16.70;7.97;;;;;;;1.78;100.00;99258.81;4486672;31;20115;-69
2021/12/06 03:28:43;;;;;;;14.23;6.78;;;;;;;1.85;100.00;99259.72;4486841;31;20118;-69
2021/12/06 03:31:12;;;;;;;14.05;7.95;;;;;;;1.83;100.00;99254.50;4486751;31;20100;-69
2021/12/06 03:33:42;;;;;;;15.07;7.30;;;;;;;1.82;100.00;99260.56;4486756;31;20538;-69
2021/12/06 03:36:11;;;;;;;18.15;8.05;;;;;;;1.84;100.00;99263.19;4486670;31;20158;-69
2021/12/06 03:38:40;;;;;;;11.40;6.80;;;;;;;1.85;99.31;99264.91;4486931;31;20126;-69
2021/12/06 03:41:10;;;;;;;14.75;7.15;;;;;;;1.79;99.74;99265.72;4486626;31;20423;-69
2021/12/06 03:43:40;;;;;;;13.50;7.60;;;;;;;1.72;99.74;99269.16;4486781;31;20533;-69
2021/12/06 03:46:10;;;;;;;13.07;7.37;;;;;;;1.63;100.00;99282.09;4486543;31;20160;-69
2021/12/06 03:48:38;;;;;;;14.05;7.85;;;;;;;1.59;100.00;99272.53;4486910;31;20427;-69
2021/12/06 03:51:07;;;;;;;10.95;6.87;;;;;;;1.56;100.00;99264.75;4486675;31;20096;-69
2021/12/06 03:53:35;;;;;;;15.85;8.07;;;;;;;1.43;100.00;99263.78;4486537;31;20129;-69
2021/12/06 03:56:03;;;;;;;16.23;8.15;;;;;;;1.38;100.00;99263.75;4486491;31;20076;-69
2021/12/06 03:58:32;;;;;;;12.27;7.10;;;;;;;1.40;100.00;99264.63;4486415;31;20418;-69
2021/12/06 04:01:03;;;;;;;17.92;7.30;;;;;;;1.42;100.00;99262.94;4486358;31;20159;-69
2021/12/06 04:03:35;;;;;;;13.07;7.50;;;;;;;1.39;100.00;99268.09;4486349;31;20104;-69
2021/12/06 04:06:04;;;;;;;14.02;7.75;;;;;;;1.35;100.00;99263.75;4486532;31;20075;-68
2021/12/06 04:08:33;;;;;;;9.50;6.12;;;;;;;1.36;100.00;99262.00;4486549;31;20126;-69
2021/12/06 04:11:01;;;;;;;14.35;7.00;;;;;;;1.35;100.00;99255.09;4486589;31;20424;-69
2021/12/06 04:13:30;;;;;;;12.37;6.80;;;;;;;1.32;100.00;99250.75;4486694;31;20186;-69
2021/12/06 04:15:58;;;;;;;11.60;6.53;;;;;;;1.26;100.00;99247.22;4485336;31;20151;-69
2021/12/06 04:18:26;;;;;;;10.00;6.12;;;;;;;1.30;100.00;99248.97;4486641;31;20160;-69
2021/12/06 04:20:53;;;;;;;13.23;7.60;;;;;;;1.25;100.00;99263.66;4486235;31;20104;-69
2021/12/06 04:23:22;;;;;;;12.80;6.78;;;;;;;1.18;100.00;99265.34;4486481;31;20095;-69
2021/12/06 04:25:49;;;;;;;12.75;6.82;;;;;;;1.21;100.00;99265.38;4486396;31;20508;-69
2021/12/06 04:28:19;;;;;;;12.07;6.72;;;;;;;1.15;100.00;99275.69;4486558;31;20100;-69
2021/12/06 04:30:49;;;;;;;10.75;6.35;;;;;;;1.19;100.00;99275.72;4486286;31;20400;-69
2021/12/06 04:33:17;;;;;;;9.40;4.93;;;;;;;1.22;100.00;99264.50;4486487;31;20095;-69
2021/12/06 04:35:45;;;;;;;9.90;6.22;;;;;;;1.22;100.00;99284.41;4486360;31;20160;-69
2021/12/06 04:38:15;;;;;;;8.73;5.80;;;;;;;1.08;100.00;99273.91;4486364;31;20125;-69
2021/12/06 04:40:43;;;;;;;10.00;6.07;;;;;;;1.11;100.00;99268.75;4486465;31;20501;-69
2021/12/06 04:43:10;;;;;;;8.90;5.80;;;;;;;1.08;100.00;99263.53;4486207;31;20104;-68
2021/12/06 04:45:38;;;;;;;12.15;6.87;;;;;;;1.10;100.00;99259.22;4471569;31;20461;-69
2021/12/06 04:48:07;;;;;;;9.98;6.20;;;;;;;1.05;100.00;99268.69;4486148;31;20148;-69
2021/12/06 04:50:36;;;;;;;10.75;6.10;;;;;;;1.10;100.00;99282.56;4486093;31;20168;-69
2021/12/06 04:53:08;;;;;;;11.25;6.47;;;;;;;1.09;100.00;99288.59;4485667;31;20104;-68
2021/12/06 04:55:51;;;;;;;12.23;6.30;;;;;;;1.03;100.00;99276.47;4486221;31;20099;-69
2021/12/06 04:58:23;;;;;;;14.18;8.32;;;;;;;1.03;100.00;99285.97;4486271;31;20428;-68
2021/12/06 05:00:59;;;;;;;11.57;6.50;;;;;;;0.85;100.00;99284.06;4485894;31;20124;-68
2021/12/06 05:03:28;;;;;;;10.90;6.57;;;;;;;0.93;100.00;99285.88;4485917;31;20157;-68
2021/12/06 05:06:00;;;;;;;10.48;6.82;;;;;;;0.92;100.00;99294.53;4486275;31;20095;-68
2021/12/06 05:08:33;;;;;;;11.07;6.87;;;;;;;0.98;100.00;99295.41;4486314;31;20092;-68
2021/12/06 05:11:04;;;;;;;14.87;8.07;;;;;;;0.95;100.00;99304.94;4485942;31;20108;-68
2021/12/06 05:13:33;;;;;;;15.50;6.93;;;;;;;0.88;100.00;99299.66;4486133;31;20497;-68
2021/12/06 05:16:02;;;;;;;14.57;8.60;;;;;;;0.98;100.00;99305.78;4484093;31;20440;-69
2021/12/06 05:18:29;;;;;;;16.85;9.38;;;;;;;0.95;100.00;99304.94;4492945;31;20192;-69
2021/12/06 05:20:57;;;;;;;15.10;8.85;;;;;;;0.77;100.00;99315.09;4484276;31;20172;-69
2021/12/06 05:23:24;;;;;;;18.02;10.02;;;;;;;0.91;100.00;99307.47;4485808;31;20595;-69
2021/12/06 05:25:51;;;;;;;21.67;10.25;;;;;;;0.82;100.00;99320.34;4485687;31;20092;-69
2021/12/06 05:28:23;;;;;;;17.45;9.38;;;;;;;0.92;100.00;99315.28;4485512;31;20096;-69
2021/12/06 05:30:54;;;;;;;20.45;10.88;;;;;;;0.97;100.00;99324.81;4485580;31;20495;-69
2021/12/06 05:33:31;;;;;;;42.97;15.70;;;;;;;0.96;100.00;99316.16;4485879;31;20138;-69
2021/12/06 05:36:02;;;;;;;27.27;13.07;;;;;;;0.97;100.00;99317.03;4485805;31;20410;-69
2021/12/06 05:38:30;;;;;;;19.15;10.48;;;;;;;0.95;100.00;99319.59;4485812;31;20117;-69
2021/12/06 05:40:58;;;;;;;18.15;9.23;;;;;;;0.91;100.00;99329.06;4485873;31;20124;-69
2021/12/06 05:43:25;;;;;;;30.77;15.15;;;;;;;0.93;100.00;99329.09;4485608;31;20744;-69
2021/12/06 05:45:54;;;;;;;22.48;11.35;;;;;;;0.98;100.00;99318.75;4485343;31;20080;-69
2021/12/06 05:48:21;;;;;;;14.50;8.25;;;;;;;1.11;100.00;99324.09;4485602;31;20095;-69
2021/12/06 05:50:50;;;;;;;10.57;6.53;;;;;;;1.27;100.00;99334.59;4485532;31;20104;-69
2021/12/06 05:53:18;;;;;;;11.38;6.45;;;;;;;1.23;100.00;99336.28;4485295;31;20467;-69
2021/12/06 05:55:46;;;;;;;12.65;6.85;;;;;;;1.33;100.00;99332.06;4485723;31;20352;-69
2021/12/06 05:58:16;;;;;;;12.05;6.95;;;;;;;1.43;100.00;99333.88;4485520;31;20152;-69
2021/12/06 06:00:45;;;;;;;10.77;6.43;;;;;;;1.56;100.00;99330.53;4478231;31;217993;-69
2021/12/06 06:03:13;;;;;;;10.00;5.87;;;;;;;1.47;100.00;99330.44;4485635;31;20539;-69
2021/12/06 06:05:40;;;;;;;9.90;5.90;;;;;;;1.70;100.00;99347.91;4485385;31;20091;-69
2021/12/06 06:08:08;;;;;;;9.43;5.82;;;;;;;1.70;100.00;99359.19;4485207;31;20549;-69
2021/12/06 06:10:36;;;;;;;11.52;7.07;;;;;;;1.83;99.26;99365.31;4485473;31;20085;-69
2021/12/06 06:13:05;;;;;;;13.80;8.20;;;;;;;1.86;98.62;99365.34;4485209;31;20100;-69
2021/12/06 06:15:32;;;;;;;12.82;7.32;;;;;;;1.87;97.13;99367.06;4484851;31;20114;-69
2021/12/06 06:18:01;;;;;;;13.05;7.65;;;;;;;1.84;97.54;99374.88;4485226;31;20103;-69
2021/12/06 06:20:36;;;;;;;15.80;8.32;;;;;;;1.61;98.38;99378.13;4485205;31;20092;-69
2021/12/06 06:23:04;;;;;;;17.52;9.57;;;;;;;1.49;99.26;99384.97;4485008;31;20100;-69
2021/12/06 06:25:32;;;;;;;16.90;8.73;;;;;;;1.61;98.83;99383.34;4485058;31;20431;-69
2021/12/06 06:28:00;;;;;;;19.20;9.40;;;;;;;1.57;98.78;99378.13;4490807;31;20193;-69
2021/12/06 06:30:27;;;;;;;24.80;10.40;;;;;;;1.46;99.39;99374.56;4484957;31;20157;-69
2021/12/06 06:32:55;;;;;;;20.92;10.48;;;;;;;1.61;98.63;99375.53;4485163;31;20104;-69
2021/12/06 06:35:23;;;;;;;18.95;9.40;;;;;;;1.39;99.36;99384.88;4485155;31;20140;-69
2021/12/06 06:37:52;;;;;;;20.52;10.57;;;;;;;1.31;100.00;99394.34;4484177;31;20470;-69
2021/12/06 06:40:19;;;;;;;19.25;9.43;;;;;;;1.44;100.00;99390.09;4484581;31;20100;-68
2021/12/06 06:42:47;;;;;;;16.42;8.82;;;;;;;1.38;100.00;99393.53;4484475;31;20168;-69
2021/12/06 06:45:17;;;;;;;17.08;9.43;;;;;;;1.42;100.00;99397.91;4484193;31;20071;-69
2021/12/06 06:47:45;;;;;;;22.30;11.00;;;;;;;1.37;100.00;99398.69;4484939;31;20096;-69
2021/12/06 06:50:13;;;;;;;19.73;10.05;;;;;;;1.35;100.00;99403.88;4484686;31;20100;-69
2021/12/06 06:52:42;;;;;;;17.33;9.70;;;;;;;1.42;100.00;99410.00;4484611;31;20220;-69
2021/12/06 06:55:11;;;;;;;15.48;8.70;;;;;;;1.51;99.95;99415.25;4494484;31;20159;-69
2021/12/06 06:57:40;;;;;;;18.00;9.07;;;;;;;1.48;100.00;99423.03;4501154;31;20091;-68
2021/12/06 07:00:16;;;;;;;19.52;10.35;;;;;;;1.51;100.00;99424.78;4498887;31;20151;-68
2021/12/06 07:02:44;;;;;;;27.07;11.30;;;;;;;1.48;100.00;99429.94;4498352;31;20120;-69
2021/12/06 07:05:13;;;;;;;21.05;9.25;;;;;;;1.41;100.00;99426.41;4498815;31;20080;-68
2021/12/06 07:07:41;;;;;;;18.08;8.95;;;;;;;1.44;100.00;99436.84;4498733;31;20099;-69
2021/12/06 07:10:09;;;;;;;19.12;9.55;;;;;;;1.47;100.00;99439.47;4498935;31;20156;-68
2021/12/06 07:12:45;;;;;;;19.80;9.70;;;;;;;1.53;100.00;99441.25;4498821;31;20541;-68
2021/12/06 07:15:15;;;;;;;23.77;11.32;;;;;;;1.42;100.00;99442.03;4499674;31;20079;-69
2021/12/06 07:17:44;;;;;;;21.50;9.85;;;;;;;1.30;100.00;99444.47;4499941;31;20498;-69
2021/12/06 07:20:13;;;;;;;24.67;10.90;;;;;;;1.47;100.00;99454.16;4500147;31;20095;-69
2021/12/06 07:22:40;;;;;;;22.17;9.70;;;;;;;1.50;100.00;99455.06;4500274;31;20116;-68
2021/12/06 07:25:10;;;;;;;24.52;10.23;;;;;;;1.42;100.00;99454.13;4499872;31;20080;-69
2021/12/06 07:27:38;;;;;;;26.25;11.12;;;;;;;1.47;100.00;99460.22;4500208;31;20083;-69
2021/12/06 07:30:08;;;;;;;22.50;10.63;;;;;;;1.72;100.00;99465.66;4500639;31;20133;-69
2021/12/06 07:32:36;;;;;;;32.05;13.45;;;;;;;1.63;100.00;99458.66;4496412;31;20742;-69
2021/12/06 07:35:04;;;;;;;38.60;16.35;;;;;;;1.78;99.62;99456.19;4484994;31;20451;-68
2021/12/06 07:37:31;;;;;;;39.60;17.33;;;;;;;1.52;100.00;99449.88;4484797;31;20152;-69
2021/12/06 07:39:59;;;;;;;53.65;21.23;;;;;;;1.72;100.00;99458.72;4484818;31;20112;-69
2021/12/06 07:42:26;;;;;;;41.17;17.58;;;;;;;1.77;99.37;99451.87;4484905;31;20091;-69
2021/12/06 07:44:53;;;;;;;46.55;18.20;;;;;;;1.70;100.00;99463.06;4484532;31;20088;-69
2021/12/06 07:47:21;;;;;;;44.13;19.92;;;;;;;1.87;99.32;99470.97;4484870;31;20176;-69
2021/12/06 07:49:49;;;;;;;37.58;16.70;;;;;;;1.84;99.06;99465.78;4491882;31;20122;-68
2021/12/06 07:52:26;;;;;;;38.03;16.70;;;;;;;1.80;99.81;99476.97;4502854;31;20099;-68
2021/12/06 07:54:58;;;;;;;37.13;16.98;;;;;;;1.88;100.00;99470.13;4499018;31;20113;-69
2021/12/06 07:57:28;;;;;;;35.78;15.63;;;;;;;1.94;99.68;99474.50;4486910;31;20076;-69
2021/12/06 07:59:57;;;;;;;43.53;16.50;;;;;;;2.04;98.56;99468.50;4492492;31;20135;-69
2021/12/06 08:02:24;;;;;;;43.80;17.33;;;;;;;1.92;99.12;99471.91;4492259;31;20107;-69
2021/12/06 08:05:29;;;;;;;32.47;14.95;;;;;;;1.87;98.54;99476.16;4494636;31;20523;-68
2021/12/06 08:07:39;;;;;;;40.03;16.90;;;;;;;1.89;98.98;99480.53;4494930;31;20117;-68
2021/12/06 08:10:07;;;;;;;40.92;17.52;;;;;;;1.94;100.00;99477.09;4486170;31;20085;-69
2021/12/06 08:12:34;;;;;;;37.00;17.45;;;;;;;1.92;100.00;99477.09;4486318;31;20463;-68
2021/12/06 08:15:02;;;;;;;40.67;17.15;;;;;;;2.11;98.79;99480.69;4485896;31;20096;-69
2021/12/06 08:17:29;;;;;;;37.28;17.25;;;;;;;2.11;98.79;99475.50;4486625;31;20153;-68
2021/12/06 08:19:57;;;;;;;41.25;17.87;;;;;;;2.05;98.55;99486.72;4487085;31;20093;-68
2021/12/06 08:22:24;;;;;;;35.97;15.85;;;;;;;1.98;99.45;99484.03;4486271;31;20099;-69
2021/12/06 08:24:51;;;;;;;39.05;16.95;;;;;;;2.06;99.23;99490.19;4485933;31;20079;-68
2021/12/06 08:27:18;;;;;;;35.05;15.73;;;;;;;2.02;99.33;99499.69;4486075;31;20153;-69
2021/12/06 08:29:46;;;;;;;30.98;14.32;;;;;;;2.24;98.74;99503.31;4485800;31;20093;-68
2021/12/06 08:32:13;;;;;;;35.28;15.05;;;;;;;2.30;97.78;99513.78;4487112;31;20103;-67
2021/12/06 08:34:43;;;;;;;35.20;14.85;;;;;;;2.26;97.43;99513.72;4491321;31;20117;-68
2021/12/06 08:37:11;;;;;;;27.52;11.93;;;;;;;2.36;96.60;99518.13;4485746;31;20544;-68
2021/12/06 08:39:39;;;;;;;30.75;14.82;;;;;;;2.28;96.96;99512.00;4486041;31;20409;-68
2021/12/06 08:42:07;;;;;;;33.55;14.77;;;;;;;2.32;96.53;99518.97;4492502;31;20152;-68
2021/12/06 08:44:35;;;;;;;37.47;15.77;;;;;;;2.21;97.42;99518.03;4488504;31;20075;-68
2021/12/06 08:47:04;;;;;;;35.03;16.17;;;;;;;2.22;97.46;99519.75;4478683;31;20126;-70
2021/12/06 08:49:32;;;;;;;31.50;13.93;;;;;;;2.33;97.14;99526.81;4492259;31;20774;-68
2021/12/06 08:52:00;;;;;;;33.58;13.77;;;;;;;2.44;96.29;99528.56;4495345;31;20115;-67
2021/12/06 08:54:29;;;;;;;34.05;14.77;;;;;;;2.21;97.16;99524.09;4494514;31;20084;-68
2021/12/06 08:56:59;;;;;;;33.38;14.35;;;;;;;2.15;97.79;99531.81;4500313;31;20104;-67
2021/12/06 08:59:27;;;;;;;34.75;14.60;;;;;;;1.90;98.92;99531.59;4493433;31;20104;-68
2021/12/06 09:01:57;;;;;;;16.30;8.52;;;;;;;1.91;99.53;99528.19;4493986;31;20506;-68
2021/12/06 09:04:45;;;;;;;32.20;14.65;;;;;;;2.05;98.50;99533.50;4492697;31;20118;-69
2021/12/06 09:07:14;;;;;;;33.83;14.87;;;;;;;2.23;98.41;99522.38;4493702;31;20092;-67
2021/12/06 09:09:48;;;;;;;30.50;12.50;;;;;;;2.20;98.99;99524.97;4495574;31;20100;-68
2021/12/06 09:12:24;;;;;;;27.52;12.77;;;;;;;2.48;97.09;99519.97;4498145;31;20087;-68
2021/12/06 09:14:54;;;;;;;30.02;14.55;;;;;;;2.50;97.23;99513.03;4492044;31;20372;-68
2021/12/06 09:17:22;;;;;;;28.80;13.57;;;;;;;2.58;96.27;99517.44;4492801;31;20156;-68
2021/12/06 09:19:50;;;;;;;30.35;13.50;;;;;;;2.81;96.38;99514.09;4485535;31;20120;-68
2021/12/06 09:22:18;;;;;;;27.27;12.82;;;;;;;2.98;94.73;99502.03;4485578;31;20099;-68
2021/12/06 09:24:47;;;;;;;27.50;12.98;;;;;;;3.14;93.70;99504.69;4485734;31;20136;-69
2021/12/06 09:27:14;;;;;;;22.13;12.23;;;;;;;3.24;93.84;99499.53;4499335;31;20099;-68
2021/12/06 09:29:41;;;;;;;22.92;11.18;;;;;;;3.16;93.42;99497.78;4501354;31;20100;-69
2021/12/06 09:32:11;;;;;;;24.55;12.13;;;;;;;3.21;93.09;99494.31;4501682;31;20141;-68
2021/12/06 09:34:43;;;;;;;21.37;11.50;;;;;;;3.10;92.94;99490.78;4491475;31;20147;-67
2021/12/06 09:37:12;;;;;;;24.35;11.45;;;;;;;3.28;93.25;99492.59;4500314;31;20111;-67
2021/12/06 09:39:40;;;;;;;24.12;12.45;;;;;;;3.77;94.62;99504.00;4501978;31;20096;-67
2021/12/06 09:42:07;;;;;;;18.15;10.73;;;;;;;3.98;90.36;99503.16;4501933;31;20162;-67
2021/12/06 09:44:35;;;;;;;23.33;11.07;;;;;;;3.81;90.81;99497.03;4501990;31;20520;-67
2021/12/06 09:47:03;;;;;;;19.62;10.50;;;;;;;4.21;90.45;99495.34;4500067;31;20147;-66
2021/12/06 09:49:32;;;;;;;19.12;10.82;;;;;;;4.11;87.47;99506.63;4492055;31;20096;-66
2021/12/06 09:52:03;;;;;;;19.80;10.80;;;;;;;3.97;89.00;99498.81;4493849;31;20122;-67
2021/12/06 09:54:34;;;;;;;22.92;11.23;;;;;;;4.03;89.02;99493.59;4498367;31;20088;-66
2021/12/06 09:57:04;;;;;;;20.42;11.48;;;;;;;4.02;89.25;99484.03;4496679;31;20388;-66
2021/12/06 09:59:33;;;;;;;15.90;10.38;;;;;;;4.26;89.35;99480.56;4485988;31;20092;-67
2021/12/06 10:02:08;;;;;;;22.42;10.90;;;;;;;4.39;88.11;99473.59;4486178;31;20137;-67
2021/12/06 10:04:39;;;;;;;19.12;11.40;;;;;;;4.41;86.49;99481.41;4486764;31;20144;-68
2021/12/06 10:07:09;;;;;;;19.08;10.65;;;;;;;4.40;90.05;99470.09;4493315;31;20096;-67
2021/12/06 10:09:38;;;;;;;26.73;12.77;;;;;;;4.74;87.17;99464.81;4492587;31;20131;-67
2021/12/06 10:12:07;;;;;;;19.00;10.00;;;;;;;5.14;88.72;99447.25;4493010;31;20155;-68
2021/12/06 10:14:36;;;;;;;17.65;11.23;;;;;;;5.48;82.23;99457.50;4493565;31;20568;-68
2021/12/06 10:17:10;;;;;;;17.95;10.75;;;;;;;5.47;84.62;99450.53;4493297;31;20088;-69
2021/12/06 10:19:37;;;;;;;19.48;10.90;;;;;;;5.99;80.54;99456.28;4493612;31;20164;-69
2021/12/06 10:22:05;;;;;;;16.58;9.77;;;;;;;6.01;79.65;99455.41;4495062;31;20141;-67
2021/12/06 10:24:34;;;;;;;18.05;11.07;;;;;;;6.12;77.45;99453.59;4497526;31;20083;-69
2021/12/06 10:27:09;;;;;;;15.52;9.68;;;;;;;5.69;79.88;99457.38;4479080;31;20164;-68
2021/12/06 10:29:44;;;;;;;14.07;9.93;;;;;;;5.14;81.69;99464.66;4491770;31;20178;-68
2021/12/06 10:32:16;;;;;;;15.73;9.00;;;;;;;5.16;82.43;99461.16;4485298;31;20433;-68
2021/12/06 10:34:48;;;;;;;17.00;10.10;;;;;;;5.35;81.30;99472.38;4485153;31;20136;-68
2021/12/06 10:37:33;;;;;;;19.30;10.45;;;;;;;5.28;81.38;99471.53;4491888;31;20084;-68
2021/12/06 10:40:03;;;;;;;16.17;9.80;;;;;;;5.17;83.21;99491.63;4489606;31;20141;-68
2021/12/06 10:42:34;;;;;;;14.43;9.35;;;;;;;5.08;83.16;99509.94;4486105;31;20146;-69
2021/12/06 10:45:14;;;;;;;17.58;9.75;;;;;;;4.77;84.11;99530.03;4486027;31;20080;-68
2021/12/06 10:47:41;;;;;;;20.55;10.13;;;;;;;4.39;85.50;99548.38;4486048;31;20161;-68
2021/12/06 10:50:16;;;;;;;15.45;9.35;;;;;;;4.20;87.55;99545.72;4485907;31;20096;-68
2021/12/06 10:52:52;;;;;;;19.77;11.93;;;;;;;4.21;86.38;99567.47;4489943;31;20129;-68
2021/12/06 10:55:21;;;;;;;14.15;8.85;;;;;;;3.71;91.77;99555.22;4486028;31;20118;-68
2021/12/06 10:57:54;;;;;;;17.95;9.95;;;;;;;3.61;89.14;99559.56;4485612;31;20100;-68
2021/12/06 11:00:27;;;;;;;16.05;8.15;;;;;;;3.51;90.31;99561.25;4485868;31;20101;-68
2021/12/06 11:02:55;;;;;;;13.02;8.32;;;;;;;3.43;90.31;99555.16;4489397;31;20523;-69
2021/12/06 11:05:25;;;;;;;17.15;8.90;;;;;;;3.51;89.77;99558.66;4492203;31;20084;-70
2021/12/06 11:08:08;;;;;;;16.90;10.13;;;;;;;3.27;91.32;99546.41;4501355;31;20096;-69
2021/12/06 11:10:46;;;;;;;20.02;10.50;;;;;;;3.52;90.54;99541.28;4493773;31;20405;-68
2021/12/06 11:13:30;;;;;;;13.68;9.00;;;;;;;3.45;90.67;99543.00;4496296;31;20167;-68
2021/12/06 11:16:20;;;;;;;17.95;9.63;;;;;;;3.43;90.81;99549.94;4500507;31;20511;-68
2021/12/06 11:18:47;;;;;;;16.12;9.07;;;;;;;3.30;90.91;99558.56;4499815;31;20139;-69
2021/12/06 11:21:25;;;;;;;16.02;8.80;;;;;;;3.20;92.00;99554.19;4499742;31;20100;-68
2021/12/06 11:24:27;;;;;;;14.60;9.20;;;;;;;3.30;91.99;99543.81;4501300;31;20119;-69
2021/12/06 11:27:02;;;;;;;13.68;8.55;;;;;;;3.21;91.72;99551.56;4489718;31;20171;-68
2021/12/06 11:29:46;;;;;;;14.35;7.75;;;;;;;3.16;91.58;99548.09;4503172;31;20832;-69
2021/12/06 11:32:18;;;;;;;15.55;8.70;;;;;;;3.24;91.92;99559.41;4502126;31;20108;-68
2021/12/06 11:35:04;;;;;;;15.48;7.30;;;;;;;3.33;91.75;99561.19;4485454;31;20125;-68
2021/12/06 11:37:37;;;;;;;20.85;9.73;;;;;;;3.43;90.67;99557.75;4485657;31;20132;-68
2021/12/06 11:40:20;;;;;;;15.40;8.38;;;;;;;3.70;90.67;99562.16;4486218;31;20080;-69
2021/12/06 11:42:56;;;;;;;12.18;7.75;;;;;;;3.93;89.48;99569.19;4491695;31;20143;-69
2021/12/06 11:45:36;;;;;;;14.77;8.45;;;;;;;4.18;88.11;99578.78;4493831;31;20515;-69
2021/12/06 11:48:14;;;;;;;12.85;8.65;;;;;;;4.40;88.65;99573.56;4493747;31;20136;-69
2021/12/06 11:50:44;;;;;;;23.27;11.38;;;;;;;4.99;87.40;99570.03;4492390;31;20110;-69